Aviation Digital Data Service (ADDS)

Output produced by METARs form (2233 UTC 01 February 2023)
found at http://www.aviationweather.gov/metar/data/
 
KCSV 012153Z AUTO 01004KT 7SM OVC005 01/M01 A3023 RMK AO2 SLP250 T00061006
KCSV 011741Z 0118/0218 01006KT P6SM OVC006 
     FM020400 03003KT 6SM BR VCSH OVC004 
     FM020900 32002KT 2SM -RA BR OVC002